Time;durP1;ratioP1;P1;durP2;ratioP2;P2;SDS_P1;SDS_P2;PMS_P1;PMS_P2;Temp;Humidity;BMP_temperature;BMP_pressure;BME280_temperature;BME280_humidity;BME280_pressure;Samples;Min_cycle;Max_cycle;Signal;HPM_P1;HPM_P2
2022/08/28 00:00:41;;;;;;;7.70;4.70;;;;;;;15.30;75.07;98484.90;104945;1271;61859;-24
2022/08/28 00:03:10;;;;;;;7.40;4.50;;;;;;;15.04;75.63;98483.64;104834;1272;75399;-24
2022/08/28 00:05:38;;;;;;;10.90;3.40;;;;;;;14.84;76.90;98482.83;104747;1274;76085;-24
2022/08/28 00:08:07;;;;;;;7.30;3.30;;;;;;;15.24;76.49;98482.17;104913;1271;74225;-24
2022/08/28 00:10:38;;;;;;;6.80;3.60;;;;;;;15.71;74.37;98485.94;104704;1271;62300;-24
2022/08/28 00:13:07;;;;;;;8.70;4.00;;;;;;;15.72;73.71;98482.13;104920;1271;61237;-24
2022/08/28 00:15:36;;;;;;;9.90;4.30;;;;;;;15.56;74.21;98480.27;104746;1272;75347;-24
2022/08/28 00:18:04;;;;;;;14.70;5.10;;;;;;;15.39;74.36;98480.70;104728;1271;76422;-24
2022/08/28 00:20:32;;;;;;;8.00;4.10;;;;;;;15.24;74.32;98477.48;104756;1271;72786;-25
2022/08/28 00:23:00;;;;;;;9.60;4.00;;;;;;;15.12;74.82;98474.25;104630;1271;63171;-24
2022/08/28 00:25:28;;;;;;;6.80;3.10;;;;;;;15.55;74.40;98473.34;104959;1271;61151;-24
2022/08/28 00:27:59;;;;;;;6.70;3.60;;;;;;;16.03;71.81;98472.42;104789;1271;75524;-24
2022/08/28 00:30:33;;;;;;;10.70;3.50;;;;;;;15.95;71.37;98469.69;104779;1271;74986;-24
2022/08/28 00:33:04;;;;;;;12.40;4.10;;;;;;;15.64;72.78;98467.47;104884;1271;74457;-24
2022/08/28 00:35:31;;;;;;;9.40;4.90;;;;;;;15.38;73.34;98466.35;103723;1271;1402501;-24
2022/08/28 00:37:58;;;;;;;13.70;4.70;;;;;;;15.13;74.14;98468.70;104989;1271;61083;-24
2022/08/28 00:40:28;;;;;;;9.80;3.50;;;;;;;14.95;74.80;98468.95;104993;1271;75585;-24
2022/08/28 00:43:01;;;;;;;7.10;3.80;;;;;;;15.35;74.67;98465.83;104757;1271;76078;-24
2022/08/28 00:45:29;;;;;;;5.50;4.30;;;;;;;15.84;73.04;98459.54;104983;1271;74432;-24
2022/08/28 00:47:57;;;;;;;7.00;4.00;;;;;;;15.85;72.58;98459.74;104960;1271;61144;-24
2022/08/28 00:52:04;;;;;;;12.30;4.20;;;;;;;15.60;73.66;98457.98;105323;1269;61127;-24
2022/08/28 00:53:16;;;;;;;11.10;4.00;;;;;;;15.27;74.16;98459.27;105178;1271;75595;-24
2022/08/28 00:55:43;;;;;;;13.40;4.80;;;;;;;15.01;74.24;98459.88;105122;1271;76019;-24
2022/08/28 00:58:10;;;;;;;6.60;3.00;;;;;;;14.83;74.95;98458.15;105144;1271;74632;-24
2022/08/28 01:00:38;;;;;;;9.80;3.20;;;;;;;15.21;75.00;98456.48;104932;1271;61920;-24
2022/08/28 01:03:05;;;;;;;11.10;3.80;;;;;;;15.59;73.13;98457.60;105187;1271;61121;-24
2022/08/28 01:05:33;;;;;;;8.40;4.00;;;;;;;15.55;73.34;98456.95;105113;1271;75395;-24
2022/08/28 01:08:00;;;;;;;12.00;4.50;;;;;;;15.34;73.86;98458.20;104944;1271;75264;-24
2022/08/28 01:10:29;;;;;;;8.60;4.10;;;;;;;15.08;74.39;98457.51;105131;1271;74306;-24
2022/08/28 01:12:56;;;;;;;9.60;5.00;;;;;;;14.80;75.09;98457.05;105153;1271;61372;-24
2022/08/28 01:15:27;;;;;;;8.80;3.10;;;;;;;14.56;76.38;98455.22;105133;1271;61080;-24
2022/08/28 01:17:56;;;;;;;9.90;3.00;;;;;;;14.88;76.67;98457.23;104768;1274;75464;-24
2022/08/28 01:20:25;;;;;;;9.80;4.00;;;;;;;15.30;75.13;98457.42;104784;1274;75066;-25
2022/08/28 01:23:10;;;;;;;10.80;4.20;;;;;;;15.27;74.40;98456.29;104733;1271;72519;-24
2022/08/28 01:25:37;;;;;;;10.90;4.40;;;;;;;15.03;74.54;98449.52;104964;1271;61953;-24
2022/08/28 01:28:06;;;;;;;7.00;4.50;;;;;;;14.80;75.42;98449.90;104933;1271;61144;-24
2022/08/28 01:30:34;;;;;;;7.70;4.40;;;;;;;14.56;76.46;98450.86;104872;1272;75713;-24
2022/08/28 01:33:01;;;;;;;9.80;3.00;;;;;;;14.33;76.98;98449.50;104988;1271;75939;-24
2022/08/28 01:35:33;;;;;;;7.30;3.20;;;;;;;14.61;76.27;98450.70;105007;1272;74319;-24
2022/08/28 01:38:00;;;;;;;9.00;4.10;;;;;;;15.02;75.22;98447.17;104798;1271;61084;-24
2022/08/28 01:40:36;;;;;;;8.40;4.10;;;;;;;14.89;75.02;98452.65;104859;1271;61176;-24
2022/08/28 01:43:07;;;;;;;8.60;4.10;;;;;;;14.53;76.67;98454.17;104847;1272;74370;-24
2022/08/28 01:45:36;;;;;;;8.60;4.30;;;;;;;14.32;76.66;98457.82;104803;1271;76021;-24
2022/08/28 01:48:05;;;;;;;10.40;4.30;;;;;;;14.12;77.50;98458.11;104636;1274;74729;-24
2022/08/28 01:50:32;;;;;;;9.70;3.20;;;;;;;13.92;78.45;98461.64;104764;1271;62763;-24
2022/08/28 01:53:00;;;;;;;7.60;2.90;;;;;;;14.32;78.01;98456.17;104896;1271;62044;-24
2022/08/28 01:55:28;;;;;;;7.10;3.40;;;;;;;14.79;75.83;98454.80;104793;1272;75512;-24
2022/08/28 01:57:56;;;;;;;8.10;3.90;;;;;;;14.81;75.02;98451.05;104909;1271;76378;-24
2022/08/28 02:02:22;;;;;;;15.70;4.50;;;;;;;14.46;76.37;98450.51;101759;1310;600464;-23
2022/08/28 02:04:49;;;;;;;9.70;4.60;;;;;;;14.15;77.56;98450.52;104159;1284;61134;-23
2022/08/28 02:07:16;;;;;;;5.00;2.90;;;;;;;13.94;77.99;98448.73;104306;1284;63104;-23
2022/08/28 02:09:43;;;;;;;8.10;3.10;;;;;;;14.26;77.39;98449.34;104275;1284;74197;-23
2022/08/28 02:12:10;;;;;;;6.80;4.10;;;;;;;14.68;75.84;98450.67;104293;1284;77514;-23
2022/08/28 02:14:37;;;;;;;8.20;3.60;;;;;;;14.72;75.36;98451.01;104285;1284;73296;-23
2022/08/28 02:17:05;;;;;;;9.90;4.10;;;;;;;14.54;75.65;98451.86;103225;1281;1665651;-23
2022/08/28 02:19:32;;;;;;;6.20;4.00;;;;;;;14.28;76.56;98455.23;104440;1281;62767;-22
2022/08/28 02:21:59;;;;;;;7.80;4.60;;;;;;;14.00;77.30;98454.84;104439;1281;73500;-23
2022/08/28 02:24:26;;;;;;;11.30;3.30;;;;;;;13.78;78.27;98461.48;104288;1281;75156;-23
2022/08/28 02:26:53;;;;;;;7.40;3.20;;;;;;;14.16;78.08;98455.94;104269;1281;74315;-23
2022/08/28 02:29:20;;;;;;;9.40;4.10;;;;;;;14.69;76.36;98458.80;104365;1281;62791;-23
2022/08/28 02:31:47;;;;;;;8.90;4.10;;;;;;;14.77;75.55;98459.89;104377;1281;61946;-23
2022/08/28 02:34:14;;;;;;;9.20;4.20;;;;;;;14.62;75.19;98459.30;104431;1281;75716;-23
2022/08/28 02:36:41;;;;;;;6.10;3.60;;;;;;;14.40;75.58;98453.82;104406;1281;77140;-23
2022/08/28 02:39:09;;;;;;;6.80;4.30;;;;;;;14.14;75.32;98459.13;104426;1281;74179;-23
2022/08/28 02:41:36;;;;;;;8.30;3.00;;;;;;;13.93;76.16;98452.62;104195;1281;61994;-23
2022/08/28 02:44:03;;;;;;;14.50;5.00;;;;;;;14.25;76.40;98456.27;104145;1281;61733;-23
2022/08/28 02:46:31;;;;;;;8.40;4.80;;;;;;;14.71;75.32;98457.19;103875;1281;74693;-23
2022/08/28 02:48:58;;;;;;;6.80;4.00;;;;;;;14.74;75.26;98461.72;104374;1281;77125;-23
2022/08/28 02:51:26;;;;;;;8.70;4.00;;;;;;;14.56;74.21;98463.80;104299;1281;74773;-23
2022/08/28 02:53:53;;;;;;;12.90;4.50;;;;;;;14.26;74.36;98464.89;104214;1281;61079;-23
2022/08/28 02:56:20;;;;;;;6.80;3.90;;;;;;;13.94;75.42;98467.70;104430;1281;62081;-23
2022/08/28 02:58:47;;;;;;;9.40;3.10;;;;;;;13.61;76.91;98467.59;103992;1281;74463;-23
2022/08/28 03:01:14;;;;;;;4.30;2.60;;;;;;;13.89;77.18;98468.23;104175;1281;74864;-25
2022/08/28 03:03:43;;;;;;;6.10;3.10;;;;;;;14.32;75.66;98459.73;104128;1281;74173;-24
2022/08/28 03:06:13;;;;;;;11.00;4.70;;;;;;;14.32;75.40;98456.58;103918;1281;61140;-23
2022/08/28 03:08:41;;;;;;;7.80;3.50;;;;;;;14.11;76.32;98462.27;104094;1281;61130;-23
2022/08/28 03:11:08;;;;;;;9.20;4.30;;;;;;;13.85;76.96;98466.25;103853;1281;74674;-23
2022/08/28 03:13:35;;;;;;;9.00;4.20;;;;;;;13.58;77.71;98468.93;104085;1281;76723;-22
2022/08/28 03:16:03;;;;;;;6.80;3.20;;;;;;;13.35;78.12;98466.59;104141;1281;75294;-22
2022/08/28 03:18:31;;;;;;;5.80;3.10;;;;;;;13.71;78.34;98466.61;104361;1281;63123;-23
2022/08/28 03:20:59;;;;;;;5.70;3.40;;;;;;;14.15;76.79;98468.94;104469;1281;61716;-23
2022/08/28 03:23:26;;;;;;;11.00;3.50;;;;;;;14.14;76.21;98464.42;104440;1281;74712;-23
2022/08/28 03:26:04;;;;;;;7.90;3.60;;;;;;;13.92;76.43;98464.10;104413;1281;77886;-23
2022/08/28 03:28:38;;;;;;;10.50;4.30;;;;;;;13.64;76.72;98466.81;103993;1281;74598;-23
2022/08/28 03:31:06;;;;;;;8.70;3.90;;;;;;;13.33;77.88;98472.14;103945;1281;62196;-23
2022/08/28 03:33:33;;;;;;;7.10;3.40;;;;;;;13.10;78.95;98470.83;103775;1281;62828;-23
2022/08/28 03:36:00;;;;;;;6.40;3.50;;;;;;;13.46;79.25;98474.39;104276;1281;73968;-22
2022/08/28 03:38:30;;;;;;;7.80;4.30;;;;;;;13.95;77.98;98479.12;104433;1281;77050;-23
2022/08/28 03:40:57;;;;;;;9.60;4.10;;;;;;;14.00;77.21;98475.59;104436;1281;74302;-23
2022/08/28 03:43:26;;;;;;;8.10;4.20;;;;;;;13.88;76.76;98479.14;104429;1281;61882;-23
2022/08/28 03:45:58;;;;;;;7.00;4.10;;;;;;;13.71;76.90;98482.50;104199;1281;62808;-24
2022/08/28 03:48:26;;;;;;;11.60;4.70;;;;;;;13.48;77.04;98485.16;103802;1281;75586;-23
2022/08/28 03:50:53;;;;;;;7.00;3.90;;;;;;;13.29;78.44;98485.61;103811;1281;76328;-22
2022/08/28 03:53:21;;;;;;;8.60;2.80;;;;;;;13.71;78.19;98490.77;104271;1281;75590;-23
2022/08/28 03:55:48;;;;;;;8.00;3.60;;;;;;;14.20;76.74;98484.14;104059;1281;63083;-23
2022/08/28 03:58:15;;;;;;;10.10;3.80;;;;;;;14.24;76.20;98485.64;104248;1281;61961;-23
2022/08/28 04:00:44;;;;;;;7.80;4.10;;;;;;;14.10;76.40;98487.83;104270;1281;74911;-23
2022/08/28 04:03:12;;;;;;;7.80;4.80;;;;;;;13.89;76.58;98489.29;104404;1281;76073;-23
2022/08/28 04:05:40;;;;;;;10.80;4.80;;;;;;;13.69;77.01;98492.61;104428;1281;74423;-23
2022/08/28 04:08:08;;;;;;;16.80;3.80;;;;;;;13.58;77.92;98490.73;104301;1284;64767;-22
2022/08/28 04:10:36;;;;;;;6.30;3.30;;;;;;;14.06;77.74;98489.08;104518;1281;63076;-23
2022/08/28 04:13:03;;;;;;;13.90;4.20;;;;;;;14.62;75.46;98486.80;104485;1278;75749;-23
2022/08/28 04:15:30;;;;;;;11.60;4.40;;;;;;;14.68;74.50;98482.15;104497;1278;76917;-23
2022/08/28 04:17:58;;;;;;;8.30;4.50;;;;;;;14.55;74.74;98486.41;104556;1278;75429;-23
2022/08/28 04:20:26;;;;;;;9.40;5.00;;;;;;;14.40;75.23;98488.50;104558;1278;63027;-23
2022/08/28 04:22:53;;;;;;;11.00;5.20;;;;;;;14.30;75.59;98483.32;104439;1278;62760;-23
2022/08/28 04:25:21;;;;;;;10.00;3.40;;;;;;;14.34;76.11;98486.23;104321;1278;75769;-24
2022/08/28 04:27:49;;;;;;;10.30;3.90;;;;;;;15.01;75.30;98482.44;104327;1278;75072;-24
2022/08/28 04:30:17;;;;;;;6.80;4.20;;;;;;;15.84;72.80;98481.18;104529;1278;75222;-23
2022/08/28 04:32:44;;;;;;;7.10;4.20;;;;;;;16.25;71.46;98480.84;104574;1278;63065;-23
2022/08/28 04:35:11;;;;;;;12.00;4.80;;;;;;;16.38;70.74;98483.20;104548;1277;62132;-24
2022/08/28 04:37:39;;;;;;;9.00;5.30;;;;;;;16.46;70.46;98485.27;104573;1278;73722;-25
2022/08/28 04:40:08;;;;;;;9.80;5.20;;;;;;;16.53;70.65;98489.08;104608;1278;76737;-23
2022/08/28 04:42:36;;;;;;;7.60;5.20;;;;;;;16.48;70.42;98487.74;104411;1278;74516;-25
2022/08/28 04:45:05;;;;;;;9.40;3.30;;;;;;;16.62;70.84;98490.59;104412;1278;64482;-23
2022/08/28 04:47:36;;;;;;;10.00;4.10;;;;;;;17.38;70.28;98492.70;104335;1278;61867;-23
2022/08/28 04:50:05;;;;;;;11.30;5.50;;;;;;;18.23;67.97;98493.75;104454;1277;75880;-23
2022/08/28 04:52:32;;;;;;;11.60;4.80;;;;;;;18.56;66.36;98489.05;103936;1278;76117;-23
2022/08/28 04:54:59;;;;;;;10.00;4.90;;;;;;;18.65;65.75;98484.49;104475;1278;74433;-23
2022/08/28 04:57:26;;;;;;;15.70;6.40;;;;;;;18.59;65.88;98484.16;104508;1278;63067;-23
2022/08/28 04:59:53;;;;;;;10.80;6.00;;;;;;;18.47;66.84;98482.77;104519;1278;62769;-23
2022/08/28 05:02:20;;;;;;;10.40;6.30;;;;;;;18.35;67.23;98484.95;104515;1278;74563;-23
2022/08/28 05:04:47;;;;;;;10.60;6.80;;;;;;;18.29;67.91;98486.27;104595;1278;76692;-23
2022/08/28 05:07:14;;;;;;;20.00;7.40;;;;;;;18.32;67.72;98482.91;104407;1277;74347;-23
2022/08/28 05:09:41;;;;;;;14.10;8.20;;;;;;;18.37;68.00;98484.91;104379;1278;61153;-23
2022/08/28 05:12:14;;;;;;;16.60;8.80;;;;;;;18.47;67.90;98485.38;104524;1278;61907;-23
2022/08/28 05:14:42;;;;;;;17.80;8.90;;;;;;;18.56;68.30;98479.71;104599;1278;75758;-23
2022/08/28 05:17:09;;;;;;;16.00;9.80;;;;;;;18.66;67.56;98479.63;104562;1278;77292;-23
2022/08/28 05:19:36;;;;;;;11.80;7.40;;;;;;;18.83;67.68;98478.54;104325;1278;75375;-23
2022/08/28 05:22:03;;;;;;;17.30;8.30;;;;;;;19.61;66.21;98479.85;104395;1278;63034;-25
2022/08/28 05:24:30;;;;;;;17.80;9.10;;;;;;;20.42;64.34;98478.98;104570;1278;62784;-23
2022/08/28 05:26:57;;;;;;;20.80;9.10;;;;;;;20.67;63.38;98478.53;104401;1278;74995;-23
2022/08/28 05:29:24;;;;;;;14.50;9.60;;;;;;;20.85;62.61;98472.21;104575;1278;77136;-23
2022/08/28 05:31:51;;;;;;;17.20;10.00;;;;;;;20.86;63.45;98469.94;104448;1278;75431;-23
2022/08/28 05:34:19;;;;;;;20.60;10.20;;;;;;;20.81;63.54;98470.19;104438;1278;62251;-23
2022/08/28 05:36:47;;;;;;;16.10;10.50;;;;;;;20.70;64.17;98469.77;104567;1278;62748;-23
2022/08/28 05:39:14;;;;;;;18.50;11.50;;;;;;;20.59;64.43;98468.03;104383;1278;74767;-24
2022/08/28 05:41:42;;;;;;;22.80;13.60;;;;;;;20.53;64.13;98464.66;104434;1277;77003;-23
2022/08/28 05:44:11;;;;;;;20.90;13.10;;;;;;;20.38;64.96;98466.29;103999;1277;74710;-24
2022/08/28 05:46:40;;;;;;;28.90;17.80;;;;;;;20.40;65.29;98464.98;104500;1278;63082;-24
2022/08/28 05:49:07;;;;;;;29.20;17.70;;;;;;;20.45;65.16;98462.13;104571;1278;61787;-23
2022/08/28 05:51:38;;;;;;;32.00;17.30;;;;;;;20.48;65.64;98462.66;104608;1278;75738;-23
2022/08/28 05:54:06;;;;;;;27.60;16.30;;;;;;;20.59;64.85;98464.20;104377;1278;77078;-23
2022/08/28 05:56:35;;;;;;;26.00;15.00;;;;;;;20.70;64.33;98462.82;104236;1278;73896;-23
2022/08/28 05:59:02;;;;;;;24.30;14.90;;;;;;;20.71;64.10;98462.41;104277;1278;62154;-23
2022/08/28 06:01:31;;;;;;;22.20;13.30;;;;;;;20.77;64.68;98459.36;104314;1278;61806;-23
2022/08/28 06:04:05;;;;;;;27.70;14.40;;;;;;;20.87;65.12;98456.98;104379;1278;74831;-23
2022/08/28 06:06:36;;;;;;;23.10;13.90;;;;;;;21.00;64.59;98455.83;104378;1278;76899;-23
2022/08/28 06:09:15;;;;;;;29.40;14.60;;;;;;;21.10;64.82;98459.02;104502;1278;75121;-23
2022/08/28 06:11:43;;;;;;;19.00;10.30;;;;;;;21.23;65.00;98460.80;104536;1278;63415;-23
2022/08/28 06:14:14;;;;;;;24.00;11.70;;;;;;;21.98;62.79;98461.08;104584;1278;63201;-23
2022/08/28 06:16:44;;;;;;;21.90;12.20;;;;;;;22.74;60.50;98463.30;104288;1278;76781;-23
2022/08/28 06:19:12;;;;;;;15.80;11.20;;;;;;;23.02;59.75;98463.70;104449;1278;76714;-24
2022/08/28 06:21:40;;;;;;;24.40;13.10;;;;;;;23.08;59.57;98467.77;104748;1272;75315;-24
2022/08/28 06:24:11;;;;;;;18.40;12.00;;;;;;;22.96;59.29;98467.65;104656;1271;62027;-23
2022/08/28 06:26:39;;;;;;;20.40;12.00;;;;;;;22.86;59.68;98471.42;104779;1271;61895;-23
2022/08/28 06:29:08;;;;;;;18.90;12.30;;;;;;;22.69;59.70;98472.64;104819;1271;75776;-23
2022/08/28 06:31:35;;;;;;;23.20;12.80;;;;;;;22.57;59.94;98472.02;104722;1271;76023;-23
2022/08/28 06:34:03;;;;;;;20.50;12.20;;;;;;;22.52;60.92;98476.34;104890;1271;75741;-23
2022/08/28 06:36:32;;;;;;;22.80;12.60;;;;;;;22.57;60.91;98470.79;105093;1271;61809;-23
2022/08/28 06:39:00;;;;;;;18.50;11.40;;;;;;;22.65;60.89;98469.77;104981;1271;63002;-23
2022/08/28 06:41:27;;;;;;;20.90;11.60;;;;;;;22.80;59.72;98471.23;104794;1271;75535;-23
2022/08/28 06:43:56;;;;;;;24.20;13.30;;;;;;;22.87;59.61;98471.02;105192;1270;75695;-23
2022/08/28 06:46:23;;;;;;;22.00;12.60;;;;;;;22.92;59.56;98475.09;105139;1271;73793;-24
2022/08/28 06:48:51;;;;;;;18.80;11.00;;;;;;;23.02;58.94;98473.90;104948;1271;62698;-23
2022/08/28 06:51:18;;;;;;;16.90;10.40;;;;;;;23.13;58.41;98476.62;105059;1271;62936;-23
2022/08/28 06:53:48;;;;;;;23.50;10.80;;;;;;;23.21;58.32;98479.56;105035;1271;75714;-22
2022/08/28 06:56:18;;;;;;;16.10;11.10;;;;;;;23.27;58.79;98482.25;104992;1271;75964;-24
2022/08/28 06:58:54;;;;;;;20.40;10.40;;;;;;;23.37;57.79;98479.66;104859;1271;74420;-23
2022/08/28 07:01:24;;;;;;;21.50;10.50;;;;;;;23.46;57.41;98478.64;104964;1271;62766;-23
2022/08/28 07:03:52;;;;;;;17.90;10.80;;;;;;;23.57;57.44;98482.42;104672;1271;63098;-23
2022/08/28 07:06:20;;;;;;;17.60;9.10;;;;;;;23.58;55.82;98478.65;104942;1271;76424;-23
2022/08/28 07:08:48;;;;;;;14.60;7.70;;;;;;;23.66;55.10;98477.08;105034;1271;77063;-23
2022/08/28 07:11:18;;;;;;;19.80;8.60;;;;;;;23.69;54.80;98476.46;105124;1271;75315;-23
2022/08/28 07:13:45;;;;;;;15.50;8.00;;;;;;;23.83;54.67;98475.63;105029;1271;61974;-23
2022/08/28 07:16:14;;;;;;;14.80;8.20;;;;;;;23.92;54.58;98477.34;105095;1271;62681;-23
2022/08/28 07:18:41;;;;;;;15.40;8.10;;;;;;;24.00;55.11;98479.51;105116;1271;75289;-23
2022/08/28 07:21:09;;;;;;;18.40;8.10;;;;;;;24.04;53.91;98479.44;105154;1270;77181;-23
2022/08/28 07:23:38;;;;;;;13.80;8.10;;;;;;;24.17;53.15;98481.02;105157;1271;75322;-23
2022/08/28 07:26:08;;;;;;;15.70;7.40;;;;;;;24.29;53.04;98482.39;105169;1270;61863;-23
2022/08/28 07:28:35;;;;;;;15.40;7.60;;;;;;;24.37;53.58;98483.41;105084;1271;61859;-22
2022/08/28 07:31:12;;;;;;;14.70;7.20;;;;;;;24.50;53.61;98486.66;105053;1271;75261;-23
2022/08/28 07:33:39;;;;;;;19.50;7.80;;;;;;;24.59;52.41;98489.90;104866;1271;76684;-24
2022/08/28 07:36:08;;;;;;;13.00;8.90;;;;;;;24.78;51.78;98486.85;105056;1271;74015;-24
2022/08/28 07:38:56;;;;;;;19.80;9.20;;;;;;;24.89;51.82;98487.30;104722;1271;61053;-25
2022/08/28 07:41:25;;;;;;;19.50;8.90;;;;;;;25.01;52.43;98490.59;104894;1271;62086;-24
2022/08/28 07:46:38;;;;;;;18.10;8.80;;;;;;;25.29;50.99;98478.56;105124;1271;77014;-24
2022/08/28 07:49:06;;;;;;;17.90;8.80;;;;;;;25.43;51.20;98481.30;104934;1271;75308;-26
2022/08/28 07:51:34;;;;;;;19.90;9.30;;;;;;;25.52;50.50;98480.73;104780;1271;62675;-24
2022/08/28 07:54:02;;;;;;;19.80;8.90;;;;;;;25.71;50.39;98483.60;105012;1271;63009;-24
2022/08/28 07:56:30;;;;;;;17.00;7.80;;;;;;;26.03;50.77;98482.18;105159;1270;75284;-22
2022/08/28 07:58:58;;;;;;;18.80;8.10;;;;;;;26.24;47.91;98482.94;105047;1270;76386;-22
2022/08/28 08:01:26;;;;;;;13.20;7.50;;;;;;;26.36;46.49;98482.13;105164;1272;75476;-24
2022/08/28 08:03:56;;;;;;;18.90;8.70;;;;;;;26.24;45.82;98484.42;104698;1271;62801;-24
2022/08/28 08:06:30;;;;;;;19.70;7.90;;;;;;;26.70;45.52;98483.10;104753;1271;61821;-22
2022/08/28 08:09:01;;;;;;;23.80;9.60;;;;;;;26.82;45.47;98483.02;105001;1274;75560;-24
2022/08/28 08:11:28;;;;;;;13.60;8.00;;;;;;;27.07;45.53;98484.02;105158;1271;75909;-24
2022/08/28 08:14:03;;;;;;;21.00;8.60;;;;;;;27.28;44.35;98481.40;104953;1271;75320;-24
2022/08/28 08:16:37;;;;;;;14.40;8.00;;;;;;;27.50;44.25;98478.98;104942;1271;62895;-22
2022/08/28 08:19:05;;;;;;;15.50;8.70;;;;;;;27.67;44.60;98478.77;104917;1271;62748;-24
2022/08/28 08:21:32;;;;;;;14.60;7.70;;;;;;;27.89;45.02;98479.23;105086;1271;76396;-24
2022/08/28 08:23:59;;;;;;;15.30;8.10;;;;;;;28.03;42.86;98477.08;105123;1271;75945;-22
2022/08/28 08:26:29;;;;;;;14.00;7.90;;;;;;;28.33;43.07;98480.23;104979;1271;75594;-22
2022/08/28 08:28:57;;;;;;;20.00;8.10;;;;;;;28.48;42.33;98479.58;105102;1271;62142;-23
2022/08/28 08:31:31;;;;;;;16.90;8.50;;;;;;;28.56;42.23;98483.77;105150;1271;63072;-22
2022/08/28 08:34:00;;;;;;;15.90;7.90;;;;;;;28.17;40.34;98482.23;104712;1272;75295;-22
2022/08/28 08:36:29;;;;;;;14.00;7.60;;;;;;;28.33;41.34;98483.55;104751;1271;76887;-22
2022/08/28 08:38:57;;;;;;;19.70;8.50;;;;;;;28.64;39.97;98478.47;104857;1271;74529;-22
2022/08/28 08:41:50;;;;;;;15.30;7.90;;;;;;;28.01;39.93;98476.63;104812;1271;62805;-22
2022/08/28 08:44:28;;;;;;;13.30;7.70;;;;;;;27.87;39.39;98478.59;104667;1271;61856;-22
2022/08/28 08:47:15;;;;;;;13.60;7.10;;;;;;;28.30;38.19;98477.09;104796;1271;76536;-22
2022/08/28 08:49:52;;;;;;;11.40;6.80;;;;;;;28.78;39.39;98475.58;104901;1271;77117;-22
2022/08/28 08:52:41;;;;;;;15.20;7.10;;;;;;;28.80;39.40;98478.52;105024;1271;75243;-22
2022/08/28 08:55:26;;;;;;;11.50;7.10;;;;;;;28.32;38.83;98476.38;105146;1271;61826;-23
2022/08/28 08:58:16;;;;;;;19.90;6.40;;;;;;;28.46;38.16;98474.13;105161;1271;63339;-22
2022/08/28 09:00:56;;;;;;;13.00;6.20;;;;;;;29.23;37.50;98476.83;105012;1271;75610;-22
2022/08/28 09:03:38;;;;;;;16.00;7.40;;;;;;;28.80;36.08;98475.62;105079;1272;75528;-24
2022/08/28 09:06:49;;;;;;;15.50;7.00;;;;;;;28.82;36.12;98478.70;104689;1272;74728;-22
2022/08/28 09:09:37;;;;;;;12.80;6.70;;;;;;;29.04;35.37;98480.86;104883;1271;61988;-22
2022/08/28 09:12:08;;;;;;;12.90;7.20;;;;;;;29.58;34.09;98486.30;105074;1271;63279;-23
2022/08/28 09:14:48;;;;;;;13.50;8.40;;;;;;;28.92;34.15;98488.08;104884;1271;76614;-23
2022/08/28 09:17:17;;;;;;;16.60;8.10;;;;;;;28.39;35.89;98489.06;104813;1271;76208;-23
2022/08/28 09:19:44;;;;;;;15.30;7.40;;;;;;;29.12;36.93;98488.88;104899;1271;74605;-22
2022/08/28 09:22:11;;;;;;;16.50;8.40;;;;;;;29.71;36.39;98492.39;105004;1271;61690;-22
2022/08/28 09:24:39;;;;;;;18.70;8.10;;;;;;;29.50;34.97;98492.15;105033;1271;62182;-22
2022/08/28 09:27:23;;;;;;;13.40;7.10;;;;;;;30.17;34.36;98492.25;105187;1271;76344;-22
2022/08/28 09:29:57;;;;;;;13.00;7.60;;;;;;;30.56;33.27;98487.36;104967;1271;75978;-23
2022/08/28 09:32:28;;;;;;;12.50;7.20;;;;;;;30.96;30.36;98491.65;104851;1271;75364;-23
2022/08/28 09:35:14;;;;;;;13.90;7.30;;;;;;;30.94;31.89;98493.27;105096;1271;62008;-22
2022/08/28 09:37:42;;;;;;;12.00;6.50;;;;;;;31.33;31.53;98493.52;105036;1271;61728;-22
2022/08/28 09:40:19;;;;;;;13.20;6.40;;;;;;;31.76;31.28;98485.52;104780;1272;74689;-23
2022/08/28 09:43:25;;;;;;;19.90;6.30;;;;;;;32.11;29.85;98486.14;104815;1271;75959;-22
2022/08/28 09:46:00;;;;;;;15.40;5.90;;;;;;;32.26;30.85;98487.38;105034;1271;75503;-23
2022/08/28 09:48:37;;;;;;;11.70;6.20;;;;;;;32.30;28.65;98484.34;104754;1271;62052;-22
2022/08/28 09:51:05;;;;;;;8.50;5.80;;;;;;;31.97;29.17;98480.55;104986;1271;62467;-23
2022/08/28 09:53:55;;;;;;;14.00;6.00;;;;;;;30.89;30.47;98479.61;104986;1272;76839;-23
2022/08/28 09:56:33;;;;;;;17.10;4.70;;;;;;;31.67;30.94;98478.23;104743;1271;76219;-23
2022/08/28 09:59:33;;;;;;;15.70;5.80;;;;;;;32.27;29.40;98474.02;105121;1271;75444;-23
2022/08/28 10:02:16;;;;;;;10.50;5.10;;;;;;;32.75;29.63;98474.10;104853;1271;61779;-23
2022/08/28 10:04:58;;;;;;;8.20;4.80;;;;;;;33.04;27.92;98474.67;104795;1271;63302;-24
2022/08/28 10:07:46;;;;;;;9.90;4.80;;;;;;;32.31;26.35;98472.95;104743;1271;75271;-23
2022/08/28 10:10:24;;;;;;;25.00;5.90;;;;;;;32.22;26.64;98475.90;104778;1271;76073;-23
2022/08/28 10:13:20;;;;;;;10.00;5.30;;;;;;;32.88;27.22;98476.14;104764;1271;74474;-24
2022/08/28 10:16:14;;;;;;;12.70;5.00;;;;;;;33.27;27.29;98474.61;104811;1271;61090;-23
2022/08/28 10:18:55;;;;;;;10.20;4.90;;;;;;;33.17;25.69;98474.73;104783;1271;63294;-23
2022/08/28 10:21:32;;;;;;;9.50;5.70;;;;;;;33.89;27.02;98477.98;105028;1272;75515;-23
2022/08/28 10:28:27;;;;;;;8.80;5.00;;;;;;;34.52;24.10;98473.04;105118;1271;74515;-23
2022/08/28 10:30:59;;;;;;;12.00;4.80;;;;;;;34.45;23.96;98473.20;105138;1271;63002;-23
2022/08/28 10:33:44;;;;;;;11.20;5.10;;;;;;;34.51;23.65;98474.08;104998;1271;61762;-23
2022/08/28 10:36:27;;;;;;;7.20;4.20;;;;;;;34.62;24.34;98474.65;104744;1271;76519;-23
2022/08/28 10:39:22;;;;;;;8.40;4.10;;;;;;;34.57;25.20;98468.30;104835;1271;75889;-23
2022/08/28 10:41:56;;;;;;;11.30;4.80;;;;;;;33.81;24.54;98467.59;104829;1271;75212;-23
2022/08/28 10:44:28;;;;;;;8.00;4.20;;;;;;;33.38;25.91;98465.25;105061;1271;62113;-24
2022/08/28 10:46:56;;;;;;;7.50;5.20;;;;;;;33.86;26.26;98463.20;104876;1274;62763;-23
2022/08/28 10:49:28;;;;;;;9.10;4.10;;;;;;;34.16;26.26;98459.91;104723;1271;76542;-23
2022/08/28 10:52:00;;;;;;;13.70;4.80;;;;;;;34.56;25.46;98464.85;104886;1272;76801;-23
2022/08/28 10:54:32;;;;;;;11.90;4.70;;;;;;;34.81;24.72;98464.30;104864;1271;75188;-23
2022/08/28 10:57:01;;;;;;;7.70;3.90;;;;;;;34.81;24.65;98467.00;104664;1271;61946;-24
2022/08/28 10:59:28;;;;;;;11.60;4.80;;;;;;;34.92;24.90;98471.54;104979;1271;63106;-23
2022/08/28 11:01:56;;;;;;;11.20;4.30;;;;;;;35.09;25.75;98469.49;105024;1273;76206;-23
2022/08/28 11:04:23;;;;;;;7.60;4.60;;;;;;;35.29;25.56;98465.61;105124;1271;75946;-23
2022/08/28 11:06:57;;;;;;;10.70;4.50;;;;;;;34.95;26.67;98466.77;105149;1271;73322;-23
2022/08/28 11:09:44;;;;;;;9.20;4.50;;;;;;;34.56;25.55;98470.32;104754;1272;63084;-23
2022/08/28 11:12:18;;;;;;;10.10;4.60;;;;;;;34.11;25.57;98466.70;104736;1271;62783;-23
2022/08/28 11:14:48;;;;;;;13.30;4.70;;;;;;;33.95;26.73;98468.89;104760;1271;75399;-23
2022/08/28 11:17:21;;;;;;;8.40;4.50;;;;;;;33.57;26.91;98471.49;104982;1271;74870;-23
2022/08/28 11:19:48;;;;;;;9.70;4.70;;;;;;;33.37;25.75;98466.55;105013;1271;75462;-23
2022/08/28 11:22:21;;;;;;;11.40;4.70;;;;;;;33.09;26.71;98463.01;104996;1271;61994;-23
2022/08/28 11:25:02;;;;;;;15.60;4.80;;;;;;;32.91;26.43;98469.70;104950;1271;62795;-23
2022/08/28 11:27:35;;;;;;;7.10;4.20;;;;;;;32.87;25.30;98471.91;104867;1271;75732;-23
2022/08/28 11:30:13;;;;;;;10.00;3.60;;;;;;;32.97;25.61;98470.88;105175;1271;76868;-23
2022/08/28 11:32:50;;;;;;;10.00;3.90;;;;;;;32.62;26.96;98463.61;105138;1271;75854;-23
2022/08/28 11:35:29;;;;;;;8.60;4.00;;;;;;;32.48;27.28;98460.31;105055;1271;61308;-23
2022/08/28 11:37:56;;;;;;;8.80;4.00;;;;;;;32.15;26.79;98462.30;105149;1272;62050;-23
2022/08/28 11:40:26;;;;;;;7.50;3.80;;;;;;;31.89;27.89;98465.20;105087;1271;76033;-24
2022/08/28 11:43:16;;;;;;;9.10;4.50;;;;;;;31.80;28.19;98465.70;105122;1271;77056;-23
2022/08/28 11:45:44;;;;;;;7.50;3.80;;;;;;;31.72;28.01;98463.79;105118;1271;73433;-23